sensor_id;sensor_type;location;lat;lon;timestamp;P1;durP1;ratioP1;P2;durP2;ratioP2
44578;SDS011;37422;51.402;0.016;2022-12-07T00:01:35;26.83;;;10.93;;
44578;SDS011;37422;51.402;0.016;2022-12-07T00:04:09;29.75;;;11.48;;
44578;SDS011;37422;51.402;0.016;2022-12-07T00:06:42;23.75;;;11.15;;
44578;SDS011;37422;51.402;0.016;2022-12-07T00:09:12;31.00;;;12.93;;
44578;SDS011;37422;51.402;0.016;2022-12-07T00:11:41;28.45;;;10.43;;
44578;SDS011;37422;51.402;0.016;2022-12-07T00:14:11;27.98;;;12.07;;
44578;SDS011;37422;51.402;0.016;2022-12-07T00:19:09;28.90;;;10.35;;
44578;SDS011;37422;51.402;0.016;2022-12-07T00:21:38;30.00;;;11.37;;
44578;SDS011;37422;51.402;0.016;2022-12-07T00:24:06;27.83;;;12.32;;
44578;SDS011;37422;51.402;0.016;2022-12-07T00:26:34;29.85;;;11.02;;
44578;SDS011;37422;51.402;0.016;2022-12-07T00:29:06;23.08;;;11.02;;
44578;SDS011;37422;51.402;0.016;2022-12-07T00:31:45;24.43;;;11.03;;
44578;SDS011;37422;51.402;0.016;2022-12-07T00:34:14;27.13;;;11.32;;
44578;SDS011;37422;51.402;0.016;2022-12-07T00:36:44;25.42;;;10.82;;
44578;SDS011;37422;51.402;0.016;2022-12-07T00:39:13;26.60;;;12.88;;
44578;SDS011;37422;51.402;0.016;2022-12-07T00:41:41;25.40;;;11.18;;
44578;SDS011;37422;51.402;0.016;2022-12-07T00:44:08;29.10;;;12.45;;
44578;SDS011;37422;51.402;0.016;2022-12-07T00:46:37;22.80;;;10.38;;
44578;SDS011;37422;51.402;0.016;2022-12-07T00:49:04;24.88;;;11.43;;
44578;SDS011;37422;51.402;0.016;2022-12-07T00:51:32;32.03;;;11.93;;
44578;SDS011;37422;51.402;0.016;2022-12-07T00:53:59;26.65;;;11.40;;
44578;SDS011;37422;51.402;0.016;2022-12-07T00:56:28;23.83;;;10.02;;
44578;SDS011;37422;51.402;0.016;2022-12-07T00:59:00;20.98;;;9.40;;
44578;SDS011;37422;51.402;0.016;2022-12-07T01:01:30;35.50;;;12.20;;
44578;SDS011;37422;51.402;0.016;2022-12-07T01:04:00;30.05;;;12.00;;
44578;SDS011;37422;51.402;0.016;2022-12-07T01:08:58;25.33;;;10.95;;
44578;SDS011;37422;51.402;0.016;2022-12-07T01:11:28;26.13;;;10.88;;
44578;SDS011;37422;51.402;0.016;2022-12-07T01:13:57;23.27;;;11.43;;
44578;SDS011;37422;51.402;0.016;2022-12-07T01:16:27;26.37;;;10.70;;
44578;SDS011;37422;51.402;0.016;2022-12-07T01:18:57;35.50;;;12.17;;
44578;SDS011;37422;51.402;0.016;2022-12-07T01:21:26;31.23;;;13.27;;
44578;SDS011;37422;51.402;0.016;2022-12-07T01:23:57;23.55;;;11.15;;
44578;SDS011;37422;51.402;0.016;2022-12-07T01:26:25;31.83;;;12.02;;
44578;SDS011;37422;51.402;0.016;2022-12-07T01:28:53;24.50;;;11.93;;
44578;SDS011;37422;51.402;0.016;2022-12-07T01:31:23;26.05;;;11.55;;
44578;SDS011;37422;51.402;0.016;2022-12-07T01:33:53;31.83;;;12.80;;
44578;SDS011;37422;51.402;0.016;2022-12-07T01:36:23;26.02;;;11.00;;
44578;SDS011;37422;51.402;0.016;2022-12-07T01:38:56;25.98;;;11.20;;
44578;SDS011;37422;51.402;0.016;2022-12-07T01:41:27;28.40;;;10.50;;
44578;SDS011;37422;51.402;0.016;2022-12-07T01:46:34;29.80;;;13.15;;
44578;SDS011;37422;51.402;0.016;2022-12-07T01:49:02;22.58;;;10.07;;
44578;SDS011;37422;51.402;0.016;2022-12-07T01:51:33;21.58;;;11.23;;
44578;SDS011;37422;51.402;0.016;2022-12-07T01:54:01;27.52;;;10.73;;
44578;SDS011;37422;51.402;0.016;2022-12-07T01:56:29;26.17;;;11.02;;
44578;SDS011;37422;51.402;0.016;2022-12-07T01:58:59;27.40;;;10.63;;
44578;SDS011;37422;51.402;0.016;2022-12-07T02:01:27;26.05;;;10.48;;
44578;SDS011;37422;51.402;0.016;2022-12-07T02:03:55;25.02;;;11.27;;
44578;SDS011;37422;51.402;0.016;2022-12-07T02:06:24;29.83;;;11.23;;
44578;SDS011;37422;51.402;0.016;2022-12-07T02:08:52;25.63;;;11.43;;
44578;SDS011;37422;51.402;0.016;2022-12-07T02:11:20;28.38;;;10.70;;
44578;SDS011;37422;51.402;0.016;2022-12-07T02:13:48;29.08;;;10.45;;
44578;SDS011;37422;51.402;0.016;2022-12-07T02:30:00;28.67;;;12.50;;
44578;SDS011;37422;51.402;0.016;2022-12-07T02:32:36;23.15;;;10.65;;
44578;SDS011;37422;51.402;0.016;2022-12-07T02:35:28;27.13;;;12.27;;
44578;SDS011;37422;51.402;0.016;2022-12-07T02:38:25;24.67;;;9.63;;
44578;SDS011;37422;51.402;0.016;2022-12-07T02:43:47;24.52;;;9.85;;
44578;SDS011;37422;51.402;0.016;2022-12-07T02:46:31;26.42;;;10.68;;
44578;SDS011;37422;51.402;0.016;2022-12-07T02:49:09;26.02;;;10.82;;
44578;SDS011;37422;51.402;0.016;2022-12-07T02:51:41;23.30;;;10.45;;
44578;SDS011;37422;51.402;0.016;2022-12-07T02:54:11;31.85;;;12.38;;
44578;SDS011;37422;51.402;0.016;2022-12-07T03:16:08;23.85;;;12.27;;
44578;SDS011;37422;51.402;0.016;2022-12-07T03:19:00;28.35;;;10.35;;
44578;SDS011;37422;51.402;0.016;2022-12-07T03:21:41;26.95;;;14.05;;
44578;SDS011;37422;51.402;0.016;2022-12-07T03:24:14;29.17;;;11.75;;
44578;SDS011;37422;51.402;0.016;2022-12-07T03:26:47;31.02;;;12.60;;
44578;SDS011;37422;51.402;0.016;2022-12-07T03:29:40;26.90;;;11.95;;
44578;SDS011;37422;51.402;0.016;2022-12-07T03:35:08;28.63;;;11.20;;
44578;SDS011;37422;51.402;0.016;2022-12-07T03:38:10;27.17;;;12.10;;
44578;SDS011;37422;51.402;0.016;2022-12-07T03:40:39;25.20;;;11.18;;
44578;SDS011;37422;51.402;0.016;2022-12-07T03:43:13;31.33;;;12.98;;
44578;SDS011;37422;51.402;0.016;2022-12-07T03:45:42;27.27;;;12.90;;
44578;SDS011;37422;51.402;0.016;2022-12-07T03:48:20;27.45;;;12.45;;
44578;SDS011;37422;51.402;0.016;2022-12-07T03:50:55;28.70;;;12.30;;
44578;SDS011;37422;51.402;0.016;2022-12-07T03:53:41;27.33;;;11.73;;
44578;SDS011;37422;51.402;0.016;2022-12-07T03:56:09;24.08;;;11.75;;
44578;SDS011;37422;51.402;0.016;2022-12-07T03:58:39;29.20;;;13.00;;
44578;SDS011;37422;51.402;0.016;2022-12-07T04:01:08;28.10;;;11.18;;
44578;SDS011;37422;51.402;0.016;2022-12-07T04:03:36;24.85;;;10.95;;
44578;SDS011;37422;51.402;0.016;2022-12-07T04:06:04;26.75;;;11.55;;
44578;SDS011;37422;51.402;0.016;2022-12-07T04:08:32;33.33;;;12.50;;
44578;SDS011;37422;51.402;0.016;2022-12-07T04:11:00;23.98;;;11.82;;
44578;SDS011;37422;51.402;0.016;2022-12-07T04:13:28;23.38;;;11.88;;
44578;SDS011;37422;51.402;0.016;2022-12-07T04:15:56;26.15;;;12.20;;
44578;SDS011;37422;51.402;0.016;2022-12-07T04:18:24;25.95;;;10.63;;
44578;SDS011;37422;51.402;0.016;2022-12-07T04:20:51;27.02;;;11.93;;
44578;SDS011;37422;51.402;0.016;2022-12-07T04:23:19;24.60;;;11.10;;
44578;SDS011;37422;51.402;0.016;2022-12-07T04:25:48;25.33;;;11.68;;
44578;SDS011;37422;51.402;0.016;2022-12-07T04:28:15;25.95;;;12.60;;
44578;SDS011;37422;51.402;0.016;2022-12-07T04:30:43;27.65;;;11.93;;
44578;SDS011;37422;51.402;0.016;2022-12-07T04:33:12;29.23;;;12.55;;
44578;SDS011;37422;51.402;0.016;2022-12-07T04:35:41;30.05;;;12.88;;
44578;SDS011;37422;51.402;0.016;2022-12-07T04:38:09;26.30;;;11.27;;
44578;SDS011;37422;51.402;0.016;2022-12-07T04:40:37;25.73;;;11.88;;
44578;SDS011;37422;51.402;0.016;2022-12-07T04:43:05;24.25;;;11.68;;
44578;SDS011;37422;51.402;0.016;2022-12-07T04:45:32;26.13;;;11.35;;
44578;SDS011;37422;51.402;0.016;2022-12-07T04:48:00;24.63;;;10.82;;
44578;SDS011;37422;51.402;0.016;2022-12-07T04:50:28;25.50;;;11.73;;
44578;SDS011;37422;51.402;0.016;2022-12-07T04:52:55;30.25;;;10.48;;
44578;SDS011;37422;51.402;0.016;2022-12-07T04:55:23;21.65;;;11.65;;
44578;SDS011;37422;51.402;0.016;2022-12-07T04:57:51;24.73;;;11.70;;
44578;SDS011;37422;51.402;0.016;2022-12-07T05:00:18;20.25;;;9.57;;
44578;SDS011;37422;51.402;0.016;2022-12-07T05:02:46;22.27;;;10.07;;
44578;SDS011;37422;51.402;0.016;2022-12-07T05:05:14;23.33;;;10.10;;
44578;SDS011;37422;51.402;0.016;2022-12-07T05:07:42;23.60;;;11.13;;
44578;SDS011;37422;51.402;0.016;2022-12-07T05:10:09;25.65;;;10.73;;
44578;SDS011;37422;51.402;0.016;2022-12-07T05:12:37;24.55;;;10.95;;
44578;SDS011;37422;51.402;0.016;2022-12-07T05:15:05;21.55;;;10.48;;
44578;SDS011;37422;51.402;0.016;2022-12-07T05:17:33;23.45;;;9.52;;
44578;SDS011;37422;51.402;0.016;2022-12-07T05:20:00;28.83;;;11.50;;
44578;SDS011;37422;51.402;0.016;2022-12-07T05:22:29;22.98;;;10.25;;
44578;SDS011;37422;51.402;0.016;2022-12-07T05:24:56;27.38;;;11.52;;
44578;SDS011;37422;51.402;0.016;2022-12-07T05:27:24;26.85;;;11.70;;
44578;SDS011;37422;51.402;0.016;2022-12-07T05:29:52;25.80;;;11.32;;
44578;SDS011;37422;51.402;0.016;2022-12-07T05:32:19;24.30;;;10.20;;
44578;SDS011;37422;51.402;0.016;2022-12-07T05:34:47;24.58;;;11.38;;
44578;SDS011;37422;51.402;0.016;2022-12-07T05:37:15;27.00;;;12.65;;
44578;SDS011;37422;51.402;0.016;2022-12-07T05:39:42;22.40;;;9.45;;
44578;SDS011;37422;51.402;0.016;2022-12-07T05:42:11;28.48;;;10.20;;
44578;SDS011;37422;51.402;0.016;2022-12-07T05:44:39;35.50;;;9.80;;
44578;SDS011;37422;51.402;0.016;2022-12-07T05:47:08;25.05;;;9.73;;
44578;SDS011;37422;51.402;0.016;2022-12-07T05:49:36;23.58;;;9.60;;
44578;SDS011;37422;51.402;0.016;2022-12-07T05:52:03;25.90;;;9.35;;
44578;SDS011;37422;51.402;0.016;2022-12-07T05:54:31;32.85;;;12.68;;
44578;SDS011;37422;51.402;0.016;2022-12-07T05:56:59;22.48;;;10.20;;
44578;SDS011;37422;51.402;0.016;2022-12-07T05:59:27;23.02;;;10.02;;
44578;SDS011;37422;51.402;0.016;2022-12-07T06:01:57;19.98;;;9.63;;
44578;SDS011;37422;51.402;0.016;2022-12-07T06:04:41;27.25;;;9.77;;
44578;SDS011;37422;51.402;0.016;2022-12-07T06:07:11;19.63;;;9.52;;
44578;SDS011;37422;51.402;0.016;2022-12-07T06:09:41;22.88;;;9.98;;
44578;SDS011;37422;51.402;0.016;2022-12-07T06:12:10;21.63;;;9.10;;
44578;SDS011;37422;51.402;0.016;2022-12-07T06:14:57;23.55;;;10.05;;
44578;SDS011;37422;51.402;0.016;2022-12-07T06:17:25;22.58;;;9.88;;
44578;SDS011;37422;51.402;0.016;2022-12-07T06:19:53;20.42;;;8.55;;
44578;SDS011;37422;51.402;0.016;2022-12-07T06:22:21;24.23;;;10.18;;
44578;SDS011;37422;51.402;0.016;2022-12-07T06:24:48;27.10;;;8.85;;
44578;SDS011;37422;51.402;0.016;2022-12-07T06:27:16;22.02;;;7.95;;
44578;SDS011;37422;51.402;0.016;2022-12-07T06:29:44;25.35;;;9.55;;
44578;SDS011;37422;51.402;0.016;2022-12-07T06:32:12;20.25;;;8.95;;
44578;SDS011;37422;51.402;0.016;2022-12-07T06:34:40;23.15;;;10.48;;
44578;SDS011;37422;51.402;0.016;2022-12-07T06:37:07;17.48;;;8.35;;
44578;SDS011;37422;51.402;0.016;2022-12-07T06:39:35;19.48;;;9.02;;
44578;SDS011;37422;51.402;0.016;2022-12-07T06:42:03;25.30;;;10.07;;
44578;SDS011;37422;51.402;0.016;2022-12-07T06:44:31;21.52;;;8.50;;
44578;SDS011;37422;51.402;0.016;2022-12-07T06:47:02;21.40;;;8.65;;
44578;SDS011;37422;51.402;0.016;2022-12-07T06:49:51;21.40;;;7.95;;
44578;SDS011;37422;51.402;0.016;2022-12-07T06:52:19;25.02;;;10.68;;
44578;SDS011;37422;51.402;0.016;2022-12-07T06:54:46;22.77;;;9.35;;
44578;SDS011;37422;51.402;0.016;2022-12-07T06:57:14;20.80;;;9.93;;
44578;SDS011;37422;51.402;0.016;2022-12-07T06:59:42;23.23;;;9.25;;
44578;SDS011;37422;51.402;0.016;2022-12-07T07:02:10;23.33;;;9.38;;
44578;SDS011;37422;51.402;0.016;2022-12-07T07:04:38;24.98;;;9.00;;
44578;SDS011;37422;51.402;0.016;2022-12-07T07:07:06;24.27;;;9.88;;
44578;SDS011;37422;51.402;0.016;2022-12-07T07:09:33;24.58;;;9.82;;
44578;SDS011;37422;51.402;0.016;2022-12-07T07:12:01;20.15;;;9.18;;
44578;SDS011;37422;51.402;0.016;2022-12-07T07:14:29;19.63;;;8.80;;
44578;SDS011;37422;51.402;0.016;2022-12-07T07:16:57;19.90;;;9.02;;
44578;SDS011;37422;51.402;0.016;2022-12-07T07:19:25;20.27;;;8.57;;
44578;SDS011;37422;51.402;0.016;2022-12-07T07:21:53;23.38;;;9.02;;
44578;SDS011;37422;51.402;0.016;2022-12-07T07:24:20;23.08;;;10.35;;
44578;SDS011;37422;51.402;0.016;2022-12-07T07:26:48;19.48;;;10.07;;
44578;SDS011;37422;51.402;0.016;2022-12-07T07:29:16;27.20;;;9.35;;
44578;SDS011;37422;51.402;0.016;2022-12-07T07:31:43;27.15;;;10.63;;
44578;SDS011;37422;51.402;0.016;2022-12-07T07:34:11;23.33;;;9.27;;
44578;SDS011;37422;51.402;0.016;2022-12-07T07:36:39;25.92;;;9.10;;
44578;SDS011;37422;51.402;0.016;2022-12-07T07:39:07;23.33;;;9.43;;
44578;SDS011;37422;51.402;0.016;2022-12-07T07:41:34;22.38;;;11.07;;
44578;SDS011;37422;51.402;0.016;2022-12-07T07:44:02;20.77;;;8.43;;
44578;SDS011;37422;51.402;0.016;2022-12-07T07:46:30;22.25;;;7.97;;
44578;SDS011;37422;51.402;0.016;2022-12-07T07:49:00;22.30;;;9.17;;
44578;SDS011;37422;51.402;0.016;2022-12-07T07:51:28;20.05;;;7.55;;
44578;SDS011;37422;51.402;0.016;2022-12-07T07:53:55;17.27;;;7.57;;
44578;SDS011;37422;51.402;0.016;2022-12-07T07:56:23;22.52;;;9.68;;
44578;SDS011;37422;51.402;0.016;2022-12-07T07:58:51;23.38;;;9.65;;
44578;SDS011;37422;51.402;0.016;2022-12-07T08:01:19;23.92;;;8.63;;
44578;SDS011;37422;51.402;0.016;2022-12-07T08:03:47;23.20;;;9.32;;
44578;SDS011;37422;51.402;0.016;2022-12-07T08:06:15;19.83;;;9.77;;
44578;SDS011;37422;51.402;0.016;2022-12-07T08:08:43;24.00;;;11.20;;
44578;SDS011;37422;51.402;0.016;2022-12-07T08:11:10;27.25;;;10.70;;
44578;SDS011;37422;51.402;0.016;2022-12-07T08:13:38;26.48;;;9.77;;
44578;SDS011;37422;51.402;0.016;2022-12-07T08:16:07;22.17;;;9.70;;
44578;SDS011;37422;51.402;0.016;2022-12-07T08:18:37;25.38;;;10.98;;
44578;SDS011;37422;51.402;0.016;2022-12-07T08:21:07;19.60;;;10.07;;
44578;SDS011;37422;51.402;0.016;2022-12-07T08:23:38;21.33;;;9.77;;
44578;SDS011;37422;51.402;0.016;2022-12-07T08:26:08;24.15;;;10.45;;
44578;SDS011;37422;51.402;0.016;2022-12-07T08:28:38;27.50;;;10.48;;
44578;SDS011;37422;51.402;0.016;2022-12-07T08:31:08;20.77;;;8.80;;
44578;SDS011;37422;51.402;0.016;2022-12-07T08:33:41;22.35;;;10.60;;
44578;SDS011;37422;51.402;0.016;2022-12-07T08:36:10;23.50;;;8.50;;
44578;SDS011;37422;51.402;0.016;2022-12-07T08:38:40;21.50;;;8.75;;
44578;SDS011;37422;51.402;0.016;2022-12-07T08:41:22;22.00;;;9.40;;
44578;SDS011;37422;51.402;0.016;2022-12-07T08:43:51;22.75;;;10.20;;
44578;SDS011;37422;51.402;0.016;2022-12-07T08:46:32;22.40;;;9.57;;
44578;SDS011;37422;51.402;0.016;2022-12-07T08:49:51;22.88;;;10.13;;
44578;SDS011;37422;51.402;0.016;2022-12-07T08:52:01;21.98;;;9.13;;
44578;SDS011;37422;51.402;0.016;2022-12-07T08:54:31;23.10;;;9.32;;
44578;SDS011;37422;51.402;0.016;2022-12-07T08:57:03;22.55;;;9.32;;
44578;SDS011;37422;51.402;0.016;2022-12-07T08:59:31;25.40;;;9.98;;
44578;SDS011;37422;51.402;0.016;2022-12-07T09:02:01;20.83;;;9.52;;
44578;SDS011;37422;51.402;0.016;2022-12-07T09:04:29;23.75;;;10.38;;
44578;SDS011;37422;51.402;0.016;2022-12-07T09:06:57;19.92;;;9.63;;
44578;SDS011;37422;51.402;0.016;2022-12-07T09:09:26;26.05;;;10.18;;
44578;SDS011;37422;51.402;0.016;2022-12-07T09:11:53;18.63;;;7.50;;
44578;SDS011;37422;51.402;0.016;2022-12-07T09:14:21;24.65;;;7.90;;
44578;SDS011;37422;51.402;0.016;2022-12-07T09:16:49;23.63;;;7.45;;
44578;SDS011;37422;51.402;0.016;2022-12-07T09:19:17;20.33;;;7.90;;
44578;SDS011;37422;51.402;0.016;2022-12-07T09:21:45;19.95;;;8.10;;
44578;SDS011;37422;51.402;0.016;2022-12-07T09:24:12;23.50;;;8.52;;
44578;SDS011;37422;51.402;0.016;2022-12-07T09:26:40;20.77;;;7.40;;
44578;SDS011;37422;51.402;0.016;2022-12-07T09:29:08;14.98;;;7.47;;
44578;SDS011;37422;51.402;0.016;2022-12-07T09:31:36;20.13;;;8.10;;
44578;SDS011;37422;51.402;0.016;2022-12-07T09:34:04;21.67;;;8.20;;
44578;SDS011;37422;51.402;0.016;2022-12-07T09:36:33;20.38;;;8.75;;
44578;SDS011;37422;51.402;0.016;2022-12-07T09:39:01;16.67;;;7.38;;
44578;SDS011;37422;51.402;0.016;2022-12-07T09:41:31;18.50;;;7.45;;
44578;SDS011;37422;51.402;0.016;2022-12-07T09:44:04;18.33;;;7.05;;
44578;SDS011;37422;51.402;0.016;2022-12-07T09:46:35;17.52;;;6.88;;
44578;SDS011;37422;51.402;0.016;2022-12-07T09:51:39;17.13;;;6.85;;
44578;SDS011;37422;51.402;0.016;2022-12-07T09:54:07;21.38;;;7.50;;
44578;SDS011;37422;51.402;0.016;2022-12-07T09:56:39;18.73;;;6.85;;
44578;SDS011;37422;51.402;0.016;2022-12-07T09:59:09;19.75;;;7.55;;
44578;SDS011;37422;51.402;0.016;2022-12-07T10:01:46;18.83;;;8.45;;
44578;SDS011;37422;51.402;0.016;2022-12-07T10:06:46;17.02;;;6.95;;
44578;SDS011;37422;51.402;0.016;2022-12-07T10:09:16;15.63;;;6.53;;
44578;SDS011;37422;51.402;0.016;2022-12-07T10:14:35;18.05;;;6.63;;
44578;SDS011;37422;51.402;0.016;2022-12-07T10:17:32;16.17;;;7.05;;
44578;SDS011;37422;51.402;0.016;2022-12-07T10:20:20;16.80;;;6.55;;
44578;SDS011;37422;51.402;0.016;2022-12-07T10:22:59;19.27;;;6.75;;
44578;SDS011;37422;51.402;0.016;2022-12-07T10:25:31;18.20;;;7.13;;
44578;SDS011;37422;51.402;0.016;2022-12-07T10:28:18;22.30;;;8.55;;
44578;SDS011;37422;51.402;0.016;2022-12-07T10:31:03;14.02;;;6.95;;
44578;SDS011;37422;51.402;0.016;2022-12-07T10:33:52;19.52;;;8.27;;
44578;SDS011;37422;51.402;0.016;2022-12-07T10:39:02;17.85;;;7.85;;
44578;SDS011;37422;51.402;0.016;2022-12-07T10:41:30;21.13;;;7.18;;
44578;SDS011;37422;51.402;0.016;2022-12-07T10:43:58;19.73;;;7.68;;
44578;SDS011;37422;51.402;0.016;2022-12-07T10:46:30;16.67;;;7.10;;
44578;SDS011;37422;51.402;0.016;2022-12-07T10:55:41;18.95;;;7.65;;
44578;SDS011;37422;51.402;0.016;2022-12-07T10:58:52;26.70;;;7.10;;
44578;SDS011;37422;51.402;0.016;2022-12-07T11:21:45;21.65;;;7.93;;
44578;SDS011;37422;51.402;0.016;2022-12-07T11:27:23;23.73;;;9.80;;
44578;SDS011;37422;51.402;0.016;2022-12-07T11:38:26;20.88;;;9.38;;
44578;SDS011;37422;51.402;0.016;2022-12-07T11:41:21;21.48;;;9.65;;
44578;SDS011;37422;51.402;0.016;2022-12-07T11:43:58;23.25;;;9.57;;
44578;SDS011;37422;51.402;0.016;2022-12-07T11:46:30;20.65;;;8.48;;
44578;SDS011;37422;51.402;0.016;2022-12-07T11:49:27;23.90;;;8.60;;
44578;SDS011;37422;51.402;0.016;2022-12-07T11:52:06;18.50;;;8.75;;
44578;SDS011;37422;51.402;0.016;2022-12-07T11:55:22;20.73;;;8.53;;
44578;SDS011;37422;51.402;0.016;2022-12-07T11:58:18;22.40;;;8.73;;
44578;SDS011;37422;51.402;0.016;2022-12-07T12:03:45;19.20;;;8.05;;
44578;SDS011;37422;51.402;0.016;2022-12-07T12:06:19;21.77;;;8.57;;
44578;SDS011;37422;51.402;0.016;2022-12-07T12:15:09;21.67;;;9.23;;
44578;SDS011;37422;51.402;0.016;2022-12-07T12:20:43;22.00;;;8.80;;
44578;SDS011;37422;51.402;0.016;2022-12-07T12:23:13;17.55;;;9.25;;
44578;SDS011;37422;51.402;0.016;2022-12-07T12:26:02;23.70;;;7.88;;
44578;SDS011;37422;51.402;0.016;2022-12-07T12:33:36;22.27;;;9.02;;
44578;SDS011;37422;51.402;0.016;2022-12-07T12:47:03;20.17;;;9.20;;
44578;SDS011;37422;51.402;0.016;2022-12-07T12:55:29;23.65;;;8.98;;
44578;SDS011;37422;51.402;0.016;2022-12-07T12:58:28;21.42;;;8.32;;
44578;SDS011;37422;51.402;0.016;2022-12-07T13:03:55;18.05;;;9.48;;
44578;SDS011;37422;51.402;0.016;2022-12-07T13:08:54;21.33;;;9.30;;
44578;SDS011;37422;51.402;0.016;2022-12-07T13:11:28;19.25;;;9.07;;
44578;SDS011;37422;51.402;0.016;2022-12-07T13:17:10;23.20;;;8.98;;
44578;SDS011;37422;51.402;0.016;2022-12-07T13:20:02;22.08;;;8.90;;
44578;SDS011;37422;51.402;0.016;2022-12-07T13:28:07;22.38;;;8.90;;
44578;SDS011;37422;51.402;0.016;2022-12-07T13:31:22;16.60;;;8.05;;
44578;SDS011;37422;51.402;0.016;2022-12-07T13:33:32;20.55;;;8.55;;
44578;SDS011;37422;51.402;0.016;2022-12-07T13:36:02;18.42;;;7.47;;
44578;SDS011;37422;51.402;0.016;2022-12-07T13:38:40;23.88;;;6.88;;
44578;SDS011;37422;51.402;0.016;2022-12-07T13:41:21;19.33;;;7.53;;
44578;SDS011;37422;51.402;0.016;2022-12-07T13:44:05;19.38;;;7.57;;
44578;SDS011;37422;51.402;0.016;2022-12-07T13:49:25;19.48;;;8.65;;
44578;SDS011;37422;51.402;0.016;2022-12-07T13:51:53;20.33;;;7.95;;
44578;SDS011;37422;51.402;0.016;2022-12-07T13:54:22;20.77;;;7.47;;
44578;SDS011;37422;51.402;0.016;2022-12-07T13:56:50;19.08;;;6.95;;
44578;SDS011;37422;51.402;0.016;2022-12-07T13:59:20;18.65;;;6.95;;
44578;SDS011;37422;51.402;0.016;2022-12-07T14:01:51;19.60;;;9.02;;
44578;SDS011;37422;51.402;0.016;2022-12-07T14:07:00;20.52;;;8.63;;
44578;SDS011;37422;51.402;0.016;2022-12-07T14:10:04;22.00;;;8.30;;
44578;SDS011;37422;51.402;0.016;2022-12-07T14:12:35;15.93;;;7.50;;
44578;SDS011;37422;51.402;0.016;2022-12-07T14:17:33;18.10;;;6.85;;
44578;SDS011;37422;51.402;0.016;2022-12-07T14:20:02;21.67;;;7.97;;
44578;SDS011;37422;51.402;0.016;2022-12-07T14:22:33;18.15;;;6.80;;
44578;SDS011;37422;51.402;0.016;2022-12-07T14:25:19;14.80;;;5.93;;
44578;SDS011;37422;51.402;0.016;2022-12-07T14:27:52;18.63;;;6.25;;
44578;SDS011;37422;51.402;0.016;2022-12-07T14:30:30;17.77;;;6.10;;
44578;SDS011;37422;51.402;0.016;2022-12-07T14:33:00;18.55;;;10.38;;
44578;SDS011;37422;51.402;0.016;2022-12-07T14:37:58;19.45;;;7.30;;
44578;SDS011;37422;51.402;0.016;2022-12-07T14:40:27;14.80;;;6.55;;
44578;SDS011;37422;51.402;0.016;2022-12-07T14:43:09;16.98;;;6.55;;
44578;SDS011;37422;51.402;0.016;2022-12-07T14:45:42;18.52;;;6.53;;
44578;SDS011;37422;51.402;0.016;2022-12-07T14:48:11;18.70;;;6.93;;
44578;SDS011;37422;51.402;0.016;2022-12-07T14:51:00;18.83;;;6.38;;
44578;SDS011;37422;51.402;0.016;2022-12-07T14:53:50;16.30;;;7.20;;
44578;SDS011;37422;51.402;0.016;2022-12-07T14:56:26;14.68;;;5.72;;
44578;SDS011;37422;51.402;0.016;2022-12-07T14:58:55;15.70;;;6.28;;
44578;SDS011;37422;51.402;0.016;2022-12-07T15:01:23;19.83;;;7.57;;
44578;SDS011;37422;51.402;0.016;2022-12-07T15:03:51;26.27;;;8.25;;
44578;SDS011;37422;51.402;0.016;2022-12-07T15:06:19;15.88;;;7.40;;
44578;SDS011;37422;51.402;0.016;2022-12-07T15:08:47;19.63;;;7.70;;
44578;SDS011;37422;51.402;0.016;2022-12-07T15:11:15;16.73;;;6.95;;
44578;SDS011;37422;51.402;0.016;2022-12-07T15:13:45;18.35;;;6.70;;
44578;SDS011;37422;51.402;0.016;2022-12-07T15:16:31;20.13;;;7.38;;
44578;SDS011;37422;51.402;0.016;2022-12-07T15:19:20;20.13;;;7.50;;
44578;SDS011;37422;51.402;0.016;2022-12-07T15:21:55;17.75;;;7.15;;
44578;SDS011;37422;51.402;0.016;2022-12-07T15:24:24;22.08;;;7.80;;
44578;SDS011;37422;51.402;0.016;2022-12-07T15:26:52;16.10;;;6.55;;
44578;SDS011;37422;51.402;0.016;2022-12-07T15:29:20;13.65;;;6.38;;
44578;SDS011;37422;51.402;0.016;2022-12-07T15:31:50;19.55;;;7.30;;
44578;SDS011;37422;51.402;0.016;2022-12-07T15:34:25;19.15;;;7.63;;
44578;SDS011;37422;51.402;0.016;2022-12-07T15:37:06;19.73;;;8.95;;
44578;SDS011;37422;51.402;0.016;2022-12-07T15:39:35;18.67;;;8.00;;
44578;SDS011;37422;51.402;0.016;2022-12-07T15:42:03;23.27;;;9.50;;
44578;SDS011;37422;51.402;0.016;2022-12-07T15:44:31;15.68;;;7.38;;
44578;SDS011;37422;51.402;0.016;2022-12-07T15:47:20;16.05;;;7.05;;
44578;SDS011;37422;51.402;0.016;2022-12-07T15:49:48;18.27;;;7.78;;
44578;SDS011;37422;51.402;0.016;2022-12-07T15:52:15;18.48;;;7.53;;
44578;SDS011;37422;51.402;0.016;2022-12-07T15:54:43;18.92;;;7.07;;
44578;SDS011;37422;51.402;0.016;2022-12-07T15:57:11;18.10;;;8.30;;
44578;SDS011;37422;51.402;0.016;2022-12-07T15:59:39;16.55;;;7.63;;
44578;SDS011;37422;51.402;0.016;2022-12-07T16:02:08;20.13;;;8.38;;
44578;SDS011;37422;51.402;0.016;2022-12-07T16:04:37;18.65;;;7.78;;
44578;SDS011;37422;51.402;0.016;2022-12-07T16:07:05;18.55;;;8.98;;
44578;SDS011;37422;51.402;0.016;2022-12-07T16:09:32;20.45;;;9.15;;
44578;SDS011;37422;51.402;0.016;2022-12-07T16:12:00;18.70;;;8.25;;
44578;SDS011;37422;51.402;0.016;2022-12-07T16:14:28;21.30;;;8.80;;
44578;SDS011;37422;51.402;0.016;2022-12-07T16:17:00;20.50;;;9.20;;
44578;SDS011;37422;51.402;0.016;2022-12-07T16:19:28;24.83;;;10.43;;
44578;SDS011;37422;51.402;0.016;2022-12-07T16:21:56;23.58;;;9.90;;
44578;SDS011;37422;51.402;0.016;2022-12-07T16:24:24;24.90;;;11.43;;
44578;SDS011;37422;51.402;0.016;2022-12-07T16:26:53;27.35;;;11.95;;
44578;SDS011;37422;51.402;0.016;2022-12-07T16:29:21;25.40;;;12.13;;
44578;SDS011;37422;51.402;0.016;2022-12-07T16:31:52;28.80;;;13.00;;
44578;SDS011;37422;51.402;0.016;2022-12-07T16:34:20;27.58;;;14.63;;
44578;SDS011;37422;51.402;0.016;2022-12-07T16:36:49;29.42;;;13.45;;
44578;SDS011;37422;51.402;0.016;2022-12-07T16:39:32;31.95;;;16.35;;
44578;SDS011;37422;51.402;0.016;2022-12-07T16:42:01;29.88;;;15.15;;
44578;SDS011;37422;51.402;0.016;2022-12-07T16:44:30;33.67;;;16.02;;
44578;SDS011;37422;51.402;0.016;2022-12-07T16:46:58;24.98;;;13.38;;
44578;SDS011;37422;51.402;0.016;2022-12-07T16:49:28;28.52;;;11.98;;
44578;SDS011;37422;51.402;0.016;2022-12-07T16:51:56;25.25;;;11.93;;
44578;SDS011;37422;51.402;0.016;2022-12-07T16:54:46;22.70;;;10.75;;
44578;SDS011;37422;51.402;0.016;2022-12-07T16:57:16;20.48;;;10.20;;
44578;SDS011;37422;51.402;0.016;2022-12-07T16:59:49;26.30;;;10.85;;
44578;SDS011;37422;51.402;0.016;2022-12-07T17:02:18;21.77;;;11.48;;
44578;SDS011;37422;51.402;0.016;2022-12-07T17:04:46;26.98;;;13.00;;
44578;SDS011;37422;51.402;0.016;2022-12-07T17:07:14;25.50;;;11.70;;
44578;SDS011;37422;51.402;0.016;2022-12-07T17:09:42;29.42;;;11.70;;
44578;SDS011;37422;51.402;0.016;2022-12-07T17:12:10;23.95;;;12.60;;
44578;SDS011;37422;51.402;0.016;2022-12-07T17:14:38;26.23;;;12.13;;
44578;SDS011;37422;51.402;0.016;2022-12-07T17:17:24;32.78;;;13.70;;
44578;SDS011;37422;51.402;0.016;2022-12-07T17:19:52;23.55;;;11.77;;
44578;SDS011;37422;51.402;0.016;2022-12-07T17:22:19;23.60;;;12.40;;
44578;SDS011;37422;51.402;0.016;2022-12-07T17:24:47;23.73;;;12.95;;
44578;SDS011;37422;51.402;0.016;2022-12-07T17:27:15;27.58;;;11.63;;
44578;SDS011;37422;51.402;0.016;2022-12-07T17:29:43;28.88;;;12.30;;